Terminal Aerodrome Forecast
Issued by NWS Lake Charles, LA

Home | Current Version | Previous Version | Text Only | Print | Product List | Glossary On
Versions: 1 2 3 4 5 6 7 8 9 10 11 12 13 14 15 16 17 18 19 20 21 22 23 24 25 26 27 28
000
FTUS44 KLCH 230500
TAFBPT
TAF
KBPT 230538Z 2306/2406 00000KT 1SM BR SCT003
      TEMPO 2306/2308 1/4SM FG VV003
     FM230800 00000KT 1/4SM FG VV001
      TEMPO 2308/2312 1SM BR SCT002
     FM231300 VRB03KT 4SM BR BKN007
     FM231400 15004KT P6SM SCT015
     FM231800 16008KT P6SM SCT035=

USA.gov is the U.S. government's official web portal to all federal, state and local government web resources and services.